首页
METAR-TAF:

METAR-TAF

机场 :

Florence, 南卡罗来纳州, 美国

纬度: 34-11-16N, 经度: 079-43-51W, 海拔: 45米

当前天气观测

该预报发布于16分钟前的10:22 UTC
风速9节,风向西
温度 12°C
湿度 94%
气压 1014 hPa
能見度: 16.1公里
散云层高于500英尺
散云层高于1100英尺
阴天层高于2200英尺

METAR: KFLO 191022Z 27009KT 10SM SCT005 SCT011 OVC022 12/11 A2995 RMK AO2 RAE01 P0000 T01220106

时间: 05:38 (10:38 UTC)

预报

该预报发布于10分钟前的10:28 UTC
预报有效从19日的 10点(UTC)到 20日的 06点(UTC)
风速9节,风向西
能見度: 10公里
散云层高于500英尺
阴天层高于2200英尺
附近有阵雨
短暂存在
从 19日的 11点(UTC)到 19日的 13点(UTC)
多云层高于500英尺
从 19日的 1300点(UTC)
风速9节,风向西转西南
能見度: 10公里
多云层高于3000英尺
从 19日的 1600点(UTC)
风速10节,风向西
能見度: 10公里
多云层高于15000英尺
从 19日的 2100点(UTC)
风速8节,风向西北
能見度: 10公里
少量云层高于25000英尺
从 20日的 0000点(UTC)
风速5节,风向北转西北
能見度: 10公里
少量云层高于20000英尺
从 20日的 0500点(UTC)
风速9节,风向
能見度: 10公里
少量云层高于20000英尺

TAF: KFLO 191028Z 1910/2006 27009KT P6SM VCSH SCT005 OVC022 TEMPO 1911/1913 BKN005 FM191300 25009KT P6SM BKN030 FM191600 27010KT P6SM BKN150 FM192100 31008KT P6SM FEW250 FM200000 34005KT P6SM FEW200 FM200500 01009KT P6SM FEW200

超过4000个机场的气象观测和天气预报(METAR&TAF报告)。

可查询的气象台以黄色和红色小点在地图上表示。

将鼠标移到小点上方,可查看气象台名称。

然后点击查看天气观测和预报。

如需切换地图:点击带黑十字的绿色按钮放大地图;点击带横线的绿色按钮缩小地图;或者点击绿色箭头查看邻近地区的地图。


METAR-TAF: